ADDS METAR Data INFO
IDs: Format: Raw Decoded Include TAF

Data at: 1838 UTC 17 Oct 2017

KJYR 171815Z AUTO 18003KT 10SM CLR 20/05 A3007 RMK AO2
KJYR 171755Z AUTO 00000KT 10SM CLR 20/06 A3008 RMK AO2
KJYR 171735Z AUTO 00000KT 10SM CLR 19/07 A3009 RMK AO2
KJYR 171715Z AUTO 00000KT 10SM CLR 18/07 A3009 RMK AO2
KJYR 171655Z AUTO 00000KT 10SM CLR 17/07 A3010 RMK AO2
KJYR 171635Z AUTO 00000KT 10SM CLR 16/07 A3010 RMK AO2
KJYR 171615Z AUTO 00000KT 10SM CLR 15/07 A3010 RMK AO2
KJYR 171555Z AUTO 00000KT 10SM CLR 14/06 A3010 RMK AO2
KJYR 171535Z AUTO 00000KT 10SM CLR 13/06 A3010 RMK AO2
KJYR 171515Z AUTO 00000KT 10SM CLR 12/06 A3010 RMK AO2
KJYR 171455Z AUTO 00000KT 10SM CLR 10/06 A3010 RMK AO2
KJYR 171435Z AUTO 24003KT 10SM CLR 09/06 A3010 RMK AO2
KJYR 171415Z AUTO 00000KT 10SM CLR 08/05 A3010 RMK AO2
KJYR 171355Z AUTO 00000KT 10SM CLR 07/05 A3010 RMK AO2
KJYR 171330Z AUTO 00000KT 10SM CLR 06/05 A3009 RMK AO2
KJYR 171315Z AUTO 00000KT 10SM CLR 05/04 A3009 RMK AO2
KJYR 171255Z AUTO 00000KT 10SM CLR 04/04 A3009 RMK AO2
KJYR 171235Z AUTO 00000KT 10SM CLR 04/04 A3009 RMK AO2
KJYR 171210Z AUTO 00000KT 10SM CLR 05/04 A3009 RMK AO2
KJYR 171155Z AUTO 00000KT 10SM CLR 06/04 A3009 RMK AO2
KJYR 171135Z AUTO 00000KT 10SM CLR 06/04 A3010 RMK AO2
KJYR 171115Z AUTO 19005KT 10SM CLR 06/04 A3009 RMK AO2
KJYR 171055Z AUTO 20003KT 10SM CLR 07/04 A3010 RMK AO2
KJYR 171035Z AUTO 21005KT 10SM CLR 07/04 A3010 RMK AO2
KJYR 171015Z AUTO 20005KT 10SM CLR 07/05 A3009 RMK AO2
KJYR 170955Z AUTO 20006KT 10SM CLR 06/04 A3008 RMK AO2
KJYR 170935Z AUTO 21004KT 10SM CLR 07/04 A3008 RMK AO2
KJYR 170915Z AUTO 20006KT 10SM CLR 08/04 A3008 RMK AO2
KJYR 170855Z AUTO 20005KT 10SM CLR 08/04 A3008 RMK AO2
KJYR 170835Z AUTO 20007KT 10SM CLR 09/04 A3008 RMK AO2
KJYR 170815Z AUTO 20008KT 10SM CLR 09/04 A3008 RMK AO2
KJYR 170755Z AUTO 20008KT 10SM CLR 10/04 A3009 RMK AO2
KJYR 170735Z AUTO 20007KT 10SM CLR 10/04 A3009 RMK AO2
KJYR 170715Z AUTO 20008KT 10SM CLR 10/04 A3009 RMK AO2
KJYR 170655Z AUTO 19009KT 10SM CLR 11/04 A3009 RMK AO2
KJYR 170635Z AUTO 19009KT 10SM CLR 12/04 A3009 RMK AO2
KJYR 170615Z AUTO 19009KT 10SM CLR 12/04 A3009 RMK AO2
KJYR 170555Z AUTO 19009KT 10SM CLR 12/04 A3010 RMK AO2
KJYR 170535Z AUTO 19009KT 10SM CLR 12/04 A3010 RMK AO2
KJYR 170515Z AUTO 19009KT 10SM CLR 12/04 A3010 RMK AO2
KJYR 170455Z AUTO 19008KT 10SM CLR 12/04 A3011 RMK AO2
KJYR 170435Z AUTO 19009KT 10SM CLR 13/04 A3011 RMK AO2
KJYR 170415Z AUTO 19009KT 10SM CLR 13/04 A3011 RMK AO2
KJYR 170355Z AUTO 19010KT 10SM CLR 13/04 A3011 RMK AO2
KJYR 170335Z AUTO 19010KT 10SM CLR 13/04 A3011 RMK AO2
KJYR 170315Z AUTO 19010KT 10SM CLR 14/04 A3011 RMK AO2
KJYR 170255Z AUTO 19009KT 10SM CLR 14/04 A3011 RMK AO2
KJYR 170235Z AUTO 18010KT 10SM CLR 14/04 A3011 RMK AO2
KJYR 170215Z AUTO 18011KT 10SM CLR 14/04 A3011 RMK AO2
KJYR 170155Z AUTO 18009KT 10SM CLR 14/04 A3011 RMK AO2
KJYR 170135Z AUTO 18010KT 10SM CLR 15/04 A3011 RMK AO2
KJYR 170115Z AUTO 18008KT 10SM CLR 15/04 A3011 RMK AO2
KJYR 170055Z AUTO 18008KT 10SM CLR 15/04 A3011 RMK AO2
KJYR 170035Z AUTO 18008KT 10SM CLR 16/04 A3011 RMK AO2
KJYR 170015Z AUTO 18008KT 10SM CLR 17/03 A3011 RMK AO2
KJYR 162355Z AUTO 18009KT 10SM CLR 19/03 A3010 RMK AO2
KJYR 162335Z AUTO 19009KT 10SM CLR 20/02 A3010 RMK AO2
KJYR 162315Z AUTO 19009KT 10SM CLR 21/02 A3010 RMK AO2
KJYR 162255Z AUTO 20010KT 10SM CLR 22/02 A3011 RMK AO2
KJYR 162235Z AUTO 20011G16KT 10SM CLR 23/02 A3011 RMK AO2
KJYR 162215Z AUTO 20014G21KT 10SM CLR 23/01 A3012 RMK AO2
KJYR 162155Z AUTO 20013G19KT 10SM CLR 23/01 A3012 RMK AO2
KJYR 162135Z AUTO 20013G20KT 10SM CLR 24/02 A3012 RMK AO2
KJYR 162115Z AUTO 20015KT 10SM CLR 23/02 A3013 RMK AO2
KJYR 162055Z AUTO 21012G22KT 10SM CLR 23/02 A3014 RMK AO2
KJYR 162035Z AUTO 21018G22KT 10SM CLR 23/02 A3014 RMK AO2
KJYR 162015Z AUTO 20016G23KT 10SM CLR 23/02 A3015 RMK AO2
KJYR 161955Z AUTO 20015G24KT 10SM CLR 23/02 A3016 RMK AO2
KJYR 161935Z AUTO 21015KT 10SM CLR 23/02 A3017 RMK AO2
KJYR 161915Z AUTO 21015G21KT 10SM CLR 23/02 A3019 RMK AO2
KJYR 161855Z AUTO 21016G22KT 10SM CLR 23/02 A3020 RMK AO2
KJYR 161835Z AUTO 22017G24KT 10SM CLR 22/01 A3021 RMK AO2
KJYR 161815Z AUTO 21019KT 10SM CLR 22/01 A3022 RMK AO2
KJYR 161755Z AUTO 21014G22KT 10SM CLR 22/02 A3024 RMK AO2
KJYR 161735Z AUTO 20014G17KT 170V230 10SM CLR 21/03 A3025 RMK AO2
KJYR 161715Z AUTO 22017G20KT 10SM CLR 20/02 A3026 RMK AO2
KJYR 161655Z AUTO 21013KT 10SM CLR 19/03 A3027 RMK AO2
KJYR 161635Z AUTO 21014KT 10SM CLR 18/03 A3028 RMK AO2
KJYR 161615Z AUTO 20011KT 10SM CLR 17/04 A3029 RMK AO2
KJYR 161555Z AUTO 21011KT 10SM CLR 15/03 A3030 RMK AO2
KJYR 161535Z AUTO 20010KT 10SM CLR 14/04 A3031 RMK AO2
KJYR 161515Z AUTO 19008KT 10SM CLR 12/04 A3031 RMK AO2
KJYR 161455Z AUTO 19008KT 10SM CLR 10/04 A3031 RMK AO2
KJYR 161435Z AUTO 19006KT 10SM CLR 08/04 A3031 RMK AO2
KJYR 161415Z AUTO 18006KT 10SM CLR 07/03 A3031 RMK AO2
KJYR 161355Z AUTO 00000KT 10SM CLR 05/03 A3032 RMK AO2
KJYR 161335Z AUTO 00000KT 10SM CLR 04/02 A3032 RMK AO2
KJYR 161315Z AUTO 00000KT 10SM CLR 03/02 A3031 RMK AO2
KJYR 161255Z AUTO 00000KT 10SM CLR 03/01 A3031 RMK AO2
KJYR 161235Z AUTO 00000KT 10SM CLR 03/01 A3032 RMK AO2
KJYR 161215Z AUTO 21005KT 10SM CLR 03/01 A3032 RMK AO2
KJYR 161155Z AUTO 20006KT 10SM CLR 03/02 A3033 RMK AO2
KJYR 161135Z AUTO 20006KT 10SM CLR 03/02 A3032 RMK AO2
KJYR 161115Z AUTO 20005KT 10SM CLR 03/02 A3032 RMK AO2
KJYR 161055Z AUTO 00000KT 10SM CLR 03/02 A3033 RMK AO2
KJYR 161035Z AUTO 00000KT 10SM CLR 03/02 A3033 RMK AO2
KJYR 161015Z AUTO 00000KT 10SM CLR 03/02 A3033 RMK AO2
KJYR 160955Z AUTO 00000KT 10SM CLR 02/02 A3033 RMK AO2
KJYR 160935Z AUTO 00000KT 10SM CLR 02/01 A3033 RMK AO2
KJYR 160915Z AUTO 00000KT 10SM CLR 03/02 A3033 RMK AO2
KJYR 160855Z AUTO 00000KT 10SM CLR 04/02 A3033 RMK AO2
KJYR 160835Z AUTO 00000KT 10SM CLR 04/02 A3034 RMK AO2
KJYR 160815Z AUTO 00000KT 10SM CLR 04/02 A3035 RMK AO2
KJYR 160755Z AUTO 00000KT 10SM CLR 03/02 A3035 RMK AO2
KJYR 160735Z AUTO 00000KT 10SM CLR 02/02 A3036 RMK AO2
KJYR 160715Z AUTO 24004KT 10SM CLR 03/02 A3036 RMK AO2
KJYR 160655Z AUTO 00000KT 10SM CLR 04/02 A3036 RMK AO2